Latest Weather Observations for Sydney Harbour

IDN60801

Issued at 12:32 am EST Sunday 26 April 2015 (issued every 30 minutes, with the page automatically refreshed every 10 minutes)

About weather observations | Map of weather stations | Latest weather observations for NSW | Other Formats
Station Details ID: 066196 Name: WEDDING CAKE WEST Lat: -33.84 Lon: 151.26 Height: 6.0 m
Data from the previous 72 hours. | See also: Recent months for locations in New South Wales
Date/Time
EST
Temp
°C
App
Temp
°C
Dew
Point
Rel
Hum
%
Delta-T
°C
Wind Press
QNH
hPa
Press
MSL
hPa
Rain
since 9 am
mm
Dir
 
Spd
km/h
Gust
km/h
Spd
kts
Gust
kts
26/12:30am 13.9 - - - - WNW 26 37 14 20 - - -
26/12:00am 14.3 - - - - WNW 15 24 8 13 - - -
 
Date/Time
EST
Temp
°C
App
Temp
°C
Dew
Point
Rel
Hum
%
Delta-T
°C
Wind Press
QNH
hPa
Press
MSL
hPa
Rain
since 9 am
mm
Dir
 
Spd
km/h
Gust
km/h
Spd
kts
Gust
kts
25/11:30pm 14.3 - - - - W 15 17 8 9 - - -
25/11:00pm 14.7 - - - - WSW 17 22 9 12 - - -
25/10:30pm 15.0 - - - - SSW 24 32 13 17 - - -
25/10:00pm 15.2 - - - - SSW 20 26 11 14 - - -
25/09:30pm 15.8 - - - - SSW 28 43 15 23 - - -
25/09:00pm 16.3 - - - - SW 30 41 16 22 - - -
25/08:30pm 16.6 - - - - SSW 26 35 14 19 - - -
25/08:00pm 17.1 - - - - SW 32 43 17 23 - - -
25/07:30pm 16.3 - - - - WSW 15 26 8 14 - - -
25/07:00pm 17.5 - - - - SSW 11 15 6 8 - - -
25/06:30pm 17.5 - - - - ESE 20 26 11 14 - - -
25/06:00pm 16.5 - - - - ESE 13 20 7 11 - - -
25/05:30pm 14.2 - - - - E 17 24 9 13 - - -
25/05:10pm 13.0 - - - - S 39 61 21 33 - - -
25/05:07pm 12.8 - - - - S 44 61 24 33 - - -
25/05:00pm 13.0 - - - - WSW 50 78 27 42 - - -
25/04:59pm 12.3 - - - - WSW 50 78 27 42 - - -
25/04:54pm 14.8 - - - - SW 37 78 20 42 - - -
25/04:52pm 17.8 - - - - SSW 32 50 17 27 - - -
25/04:48pm 18.3 - - - - SE 20 44 11 24 - - -
25/04:30pm 21.0 - - - - ENE 19 26 10 14 - - -
25/04:00pm 20.9 - - - - ENE 19 20 10 11 - - -
25/03:30pm 21.0 - - - - ENE 19 24 10 13 - - -
25/03:00pm 21.2 - - - - ENE 19 20 10 11 - - -
25/02:30pm 21.2 - - - - ENE 19 20 10 11 - - -
25/02:00pm 21.3 - - - - ENE 17 20 9 11 - - -
25/01:30pm 21.1 - - - - ENE 17 19 9 10 - - -
25/01:00pm 22.2 - - - - E 11 15 6 8 - - -
25/12:30pm 22.9 - - - - ENE 9 9 5 5 - - -
25/12:00pm 21.0 - - - - ENE 11 11 6 6 - - -
25/11:30am 21.6 - - - - SW 2 7 1 4 - - -
25/11:00am 19.3 - - - - SW 9 13 5 7 - - -
25/10:30am 18.8 - - - - WSW 7 9 4 5 - - -
25/10:00am 19.3 - - - - SW 7 11 4 6 - - -
25/09:30am 20.5 - - - - WNW 6 7 3 4 - - -
25/09:00am 18.9 - - - - W 9 15 5 8 - - -
25/08:30am 17.4 - - - - SSW 7 9 4 5 - - -
25/08:00am 16.3 - - - - CALM 0 7 0 4 - - -
25/07:30am 16.2 - - - - SSW 4 7 2 4 - - -
25/07:00am 15.9 - - - - SSW 2 7 1 4 - - -
25/06:30am 15.9 - - - - SSW 9 9 5 5 - - -
25/06:00am 16.4 - - - - SSW 7 9 4 5 - - -
25/05:30am 16.4 - - - - SSW 9 15 5 8 - - -
25/05:00am 16.3 - - - - W 7 9 4 5 - - -
25/04:30am 16.2 - - - - WSW 9 13 5 7 - - -
25/04:00am 16.4 - - - - W 9 13 5 7 - - -
25/03:30am 16.6 - - - - SW 9 11 5 6 - - -
25/03:00am 17.6 - - - - WSW 7 9 4 5 - - -
25/02:30am 17.0 - - - - WSW 4 7 2 4 - - -
25/02:00am 17.0 - - - - WSW 7 9 4 5 - - -
25/01:30am 17.7 - - - - W 9 13 5 7 - - -
25/01:00am 17.5 - - - - CALM 0 0 0 0 - - -
25/12:30am 18.4 - - - - WSW 6 7 3 4 - - -
25/12:00am 18.9 - - - - WSW 7 11 4 6 - - -
 
Date/Time
EST
Temp
°C
App
Temp
°C
Dew
Point
Rel
Hum
%
Delta-T
°C
Wind Press
QNH
hPa
Press
MSL
hPa
Rain
since 9 am
mm
Dir
 
Spd
km/h
Gust
km/h
Spd
kts
Gust
kts
24/11:30pm 19.0 - - - - W 7 11 4 6 - - -
24/11:00pm 19.6 - - - - W 15 17 8 9 - - -
24/10:30pm 20.5 - - - - WNW 15 17 8 9 - - -
24/10:00pm 20.6 - - - - W 15 17 8 9 - - -
24/09:30pm 21.0 - - - - W 13 17 7 9 - - -
24/09:00pm 21.2 - - - - W 11 13 6 7 - - -
24/08:30pm 21.4 - - - - W 13 13 7 7 - - -
24/08:00pm 21.4 - - - - SW 7 11 4 6 - - -
24/07:30pm 22.6 - - - - NW 15 19 8 10 - - -
24/07:00pm 22.7 - - - - NNW 7 20 4 11 - - -
24/06:30pm 20.8 - - - - N 6 9 3 5 - - -
24/06:00pm 21.1 - - - - N 6 7 3 4 - - -
24/05:30pm 21.6 - - - - N 7 11 4 6 - - -
24/05:00pm 22.3 - - - - NNW 11 17 6 9 - - -
24/04:30pm 25.0 - - - - NNW 11 15 6 8 - - -
24/04:00pm 24.2 - - - - N 6 9 3 5 - - -
24/03:30pm 22.7 - - - - ENE 9 11 5 6 - - -
24/03:00pm 22.7 - - - - ENE 7 9 4 5 - - -
24/02:30pm 21.5 - - - - NE 7 13 4 7 - - -
24/02:00pm 21.8 - - - - NE 6 7 3 4 - - -
24/01:30pm 20.9 - - - - ENE 13 17 7 9 - - -
24/01:00pm 20.3 - - - - ENE 11 13 6 7 - - -
24/12:30pm 19.9 - - - - SW 11 13 6 7 - - -
24/12:00pm 20.1 - - - - SW 9 13 5 7 - - -
24/11:30am 20.9 - - - - CALM 0 0 0 0 - - -
24/11:00am 19.2 - - - - SW 11 13 6 7 - - -
24/10:30am 18.3 - - - - SW 13 15 7 8 - - -
24/10:00am 18.1 - - - - WSW 6 9 3 5 - - -
24/09:30am 17.7 - - - - WSW 9 11 5 6 - - -
24/09:00am 17.1 - - - - WSW 7 9 4 5 - - -
24/08:30am 18.0 - - - - CALM 0 0 0 0 - - -
24/08:00am 16.8 - - - - WSW 6 7 3 4 - - -
24/07:30am 16.2 - - - - WSW 9 11 5 6 - - -
24/07:00am 16.1 - - - - WSW 11 13 6 7 - - -
24/06:30am 16.5 - - - - S 6 9 3 5 - - -
24/06:00am 16.4 - - - - S 7 9 4 5 - - -
24/05:30am 16.3 - - - - CALM 0 0 0 0 - - -
24/05:00am 16.4 - - - - CALM 0 0 0 0 - - -
24/04:30am 16.4 - - - - S 6 9 3 5 - - -
24/04:00am 16.8 - - - - CALM 0 0 0 0 - - -
24/03:30am 16.9 - - - - S 6 7 3 4 - - -
24/03:00am 16.7 - - - - SSE 6 9 3 5 - - -
24/02:30am 17.2 - - - - SSE 9 11 5 6 - - -
24/02:00am 17.2 - - - - SSE 6 9 3 5 - - -
24/01:30am 16.9 - - - - CALM 0 4 0 2 - - -
24/01:00am 16.7 - - - - SSE 6 9 3 5 - - -
24/12:30am 17.1 - - - - SSE 7 9 4 5 - - -
24/12:00am 17.0 - - - - SSE 7 9 4 5 - - -
 
Date/Time
EST
Temp
°C
App
Temp
°C
Dew
Point
Rel
Hum
%
Delta-T
°C
Wind Press
QNH
hPa
Press
MSL
hPa
Rain
since 9 am
mm
Dir
 
Spd
km/h
Gust
km/h
Spd
kts
Gust
kts
23/11:30pm 17.2 - - - - CALM 0 0 0 0 - - -
23/11:00pm 16.9 - - - - CALM 0 0 0 0 - - -
23/10:30pm 17.0 - - - - CALM 0 0 0 0 - - -
23/10:00pm 17.1 - - - - CALM 0 0 0 0 - - -
23/09:30pm 17.2 - - - - CALM 0 0 0 0 - - -
23/09:00pm 17.2 - - - - CALM 0 0 0 0 - - -
23/08:30pm 17.5 - - - - CALM 0 6 0 3 - - -
23/08:00pm 18.3 - - - - SSE 4 6 2 3 - - -
23/07:30pm 18.0 - - - - CALM 0 0 0 0 - - -
23/07:00pm 18.4 - - - - CALM 0 0 0 0 - - -
23/06:30pm 18.6 - - - - CALM 0 0 0 0 - - -
23/06:00pm 18.8 - - - - CALM 0 0 0 0 - - -
23/05:30pm 19.3 - - - - SSE 7 9 4 5 - - -
23/05:00pm 19.9 - - - - SSE 9 11 5 6 - - -
23/04:30pm 20.1 - - - - SE 11 11 6 6 - - -
23/04:00pm 20.1 - - - - SE 9 11 5 6 - - -
23/03:30pm 21.0 - - - - S 11 13 6 7 - - -
23/03:00pm 20.9 - - - - S 13 15 7 8 - - -
23/02:30pm 20.1 - - - - S 20 24 11 13 - - -
23/02:00pm 20.2 - - - - SSE 15 22 8 12 - - -
23/01:30pm 20.2 - - - - SSE 19 22 10 12 - - -
23/01:00pm 20.0 - - - - S 24 32 13 17 - - -
23/12:30pm 19.9 - - - - S 19 24 10 13 - - -
23/12:00pm 20.0 - - - - S 19 26 10 14 - - -
23/11:30am 19.6 - - - - S 15 20 8 11 - - -
23/11:00am 19.9 - - - - SSW 17 24 9 13 - - -
23/10:30am 19.2 - - - - SW 11 17 6 9 - - -
23/10:00am 18.1 - - - - WSW 15 17 8 9 - - -
23/09:30am 17.3 - - - - WSW 9 13 5 7 - - -
23/09:00am 16.9 - - - - WSW 7 11 4 6 - - -
23/08:30am 16.8 - - - - WSW 17 22 9 12 - - -
23/08:00am 16.9 - - - - WSW 20 26 11 14 - - -
23/07:30am 16.8 - - - - WSW 20 26 11 14 - - -
23/07:00am 17.0 - - - - WSW 17 20 9 11 - - -
23/06:30am 17.4 - - - - WSW 15 19 8 10 - - -
23/06:00am 17.0 - - - - WSW 13 15 7 8 - - -
23/05:30am 16.9 - - - - WSW 13 15 7 8 - - -
23/05:00am 17.0 - - - - WSW 11 15 6 8 - - -
23/04:30am 17.2 - - - - WSW 13 15 7 8 - - -
23/04:00am 17.1 - - - - WSW 17 19 9 10 - - -
23/03:30am 16.9 - - - - WSW 17 19 9 10 - - -
23/03:00am 17.1 - - - - WSW 15 19 8 10 - - -
23/02:30am 17.2 - - - - SW 17 19 9 10 - - -
23/02:00am 17.4 - - - - SW 17 19 9 10 - - -
23/01:30am 17.6 - - - - SW 17 20 9 11 - - -
23/01:00am 17.6 - - - - WSW 17 24 9 13 - - -

Other Formats:

Comma delimited format used in spreadsheet applications
http://www.bom.gov.au/fwo/IDN60801/IDN60801.95766.axf

JavaScript Object Notation format (JSON) in row-major order
http://www.bom.gov.au/fwo/IDN60801/IDN60801.95766.json